Time;durP1;ratioP1;P1;durP2;ratioP2;P2;SDS_P1;SDS_P2;PMS_P1;PMS_P2;Temp;Humidity;BMP_temperature;BMP_pressure;BME280_temperature;BME280_humidity;BME280_pressure;Samples;Min_cycle;Max_cycle;Signal;HPM_P1;HPM_P2
2022/11/12 00:00:21;;;;;;;1.42;1.20;;;;;;;3.09;94.62;102984.84;10438872;28;20504;-71
2022/11/12 00:05:42;;;;;;;0.32;0.30;;;;;;;3.01;94.36;102979.94;10447304;28;20415;-70
2022/11/12 00:11:03;;;;;;;0.50;0.40;;;;;;;2.98;94.50;102981.38;10438095;28;20165;-71
2022/11/12 00:16:24;;;;;;;0.38;0.38;;;;;;;2.91;94.49;102982.56;10435157;28;20120;-70
2022/11/12 00:21:44;;;;;;;1.92;0.50;;;;;;;2.84;94.63;102982.81;10464327;28;20045;-70
2022/11/12 00:27:04;;;;;;;0.68;0.65;;;;;;;2.80;94.74;102985.91;10439394;28;20053;-71
2022/11/12 00:32:24;;;;;;;0.10;0.10;;;;;;;2.76;94.54;102999.38;10432173;28;20045;-71
2022/11/12 00:37:45;;;;;;;0.70;0.68;;;;;;;2.73;94.55;102996.53;10421833;28;20081;-71
2022/11/12 00:43:05;;;;;;;0.25;0.25;;;;;;;2.65;94.49;102998.47;10438085;28;20083;-71
2022/11/12 00:48:25;;;;;;;0.52;0.52;;;;;;;2.58;94.46;102998.72;10453259;28;20041;-70
2022/11/12 00:53:47;;;;;;;0.15;0.15;;;;;;;2.51;94.50;103010.22;10444444;28;20045;-70
2022/11/12 00:59:08;;;;;;;0.63;0.40;;;;;;;2.46;94.69;102996.91;10444743;28;20052;-70
2022/11/12 01:04:28;;;;;;;5.28;1.08;;;;;;;2.43;94.42;103003.50;10454378;28;20067;-70
2022/11/12 01:09:48;;;;;;;0.57;0.57;;;;;;;2.39;94.75;103001.44;10453985;28;20053;-70
2022/11/12 01:15:08;;;;;;;4.75;2.58;;;;;;;2.35;94.67;102995.06;10440628;28;20543;-70
2022/11/12 01:20:29;;;;;;;0.32;0.22;;;;;;;2.34;95.04;102997.53;10435986;28;20500;-70
2022/11/12 01:25:49;;;;;;;1.80;1.33;;;;;;;2.25;94.60;102990.81;10426572;28;20045;-70
2022/11/12 01:31:19;;;;;;;3.33;2.15;;;;;;;2.20;94.75;102989.50;10435894;28;20041;-70
2022/11/12 01:36:41;;;;;;;2.05;1.77;;;;;;;2.12;94.58;102985.34;10453161;28;20044;-70
2022/11/12 01:42:01;;;;;;;1.58;1.05;;;;;;;2.05;94.56;102983.91;10441247;28;20534;-71
2022/11/12 01:47:34;;;;;;;0.77;0.68;;;;;;;2.08;94.84;102989.31;10441339;28;20044;-71
2022/11/12 01:52:59;;;;;;;0.32;0.32;;;;;;;2.02;94.67;102983.63;10460251;28;20658;-70
2022/11/12 02:04:57;;;;;;;0.20;0.20;;;;;;;1.96;94.93;102987.38;10422346;28;20127;-71
2022/11/12 02:10:19;;;;;;;0.35;0.35;;;;;;;1.92;94.65;102986.19;10461935;28;20041;-70
2022/11/12 02:15:40;;;;;;;0.28;0.28;;;;;;;1.83;94.97;102967.28;10443910;28;20508;-70
2022/11/12 02:21:06;;;;;;;0.70;0.60;;;;;;;1.77;95.06;102976.34;10484530;28;20526;-71
2022/11/12 02:26:30;;;;;;;0.45;0.30;;;;;;;1.72;94.66;102981.84;10470425;28;20037;-71
2022/11/12 02:31:51;;;;;;;0.52;0.43;;;;;;;1.76;94.73;102973.63;10471756;28;20049;-71
2022/11/12 02:37:12;;;;;;;0.32;0.32;;;;;;;1.78;94.95;102982.41;10469860;28;20045;-70
2022/11/12 02:42:31;;;;;;;0.47;0.47;;;;;;;1.71;94.85;102990.38;10469751;28;20538;-70
2022/11/12 02:47:51;;;;;;;0.33;0.33;;;;;;;1.65;94.88;102984.66;10479139;28;20045;-71
2022/11/12 02:53:12;;;;;;;1.25;0.85;;;;;;;1.62;94.93;102984.41;10484448;28;21050;-71
2022/11/12 02:58:32;;;;;;;0.20;0.20;;;;;;;1.63;94.84;102978.47;10463634;28;20040;-70
2022/11/12 03:03:52;;;;;;;0.20;0.20;;;;;;;1.58;94.83;102972.91;10481323;28;20487;-70
2022/11/12 03:09:12;;;;;;;0.73;0.73;;;;;;;1.54;94.85;102976.88;10475004;28;20060;-70
2022/11/12 03:14:32;;;;;;;1.55;0.95;;;;;;;1.53;94.94;102980.25;10476234;28;20041;-70
2022/11/12 03:19:52;;;;;;;1.27;0.70;;;;;;;1.46;94.78;102982.16;10481416;28;20052;-70
2022/11/12 03:25:12;;;;;;;0.50;0.40;;;;;;;1.41;94.91;102994.63;10476408;28;20479;-70
2022/11/12 03:30:38;;;;;;;0.40;0.40;;;;;;;1.34;94.79;102998.34;10472205;28;20431;-71
2022/11/12 03:35:58;;;;;;;0.55;0.43;;;;;;;1.33;95.02;103001.66;10475103;28;20044;-70
2022/11/12 03:41:18;;;;;;;0.80;0.80;;;;;;;1.29;94.87;102988.34;10484071;28;20056;-71
2022/11/12 03:46:38;;;;;;;0.63;0.50;;;;;;;1.26;94.80;102999.31;10478824;28;20127;-70
2022/11/12 03:52:03;;;;;;;1.85;1.10;;;;;;;1.23;95.00;102994.78;10489501;28;20518;-71
2022/11/12 03:57:23;;;;;;;0.98;0.80;;;;;;;1.18;94.74;103005.47;10467459;28;20057;-70
2022/11/12 04:02:43;;;;;;;1.47;1.13;;;;;;;1.17;94.85;102991.66;10462228;28;20048;-70
2022/11/12 04:13:49;;;;;;;1.42;1.05;;;;;;;1.04;94.88;102975.84;10486416;28;20519;-70
2022/11/12 04:30:28;;;;;;;1.10;1.00;;;;;;;0.96;94.96;102994.84;10464050;28;20052;-70
2022/11/12 04:35:48;;;;;;;2.80;0.60;;;;;;;0.87;95.00;102998.41;10482715;28;20135;-70
2022/11/12 04:46:47;;;;;;;1.30;0.95;;;;;;;0.78;95.20;102981.16;10464918;28;20045;-70
2022/11/12 04:52:08;;;;;;;0.67;0.50;;;;;;;0.74;94.82;103000.63;10488873;28;20048;-70
2022/11/12 04:57:28;;;;;;;1.38;0.63;;;;;;;0.75;94.84;102981.81;10455885;28;20053;-70
2022/11/12 05:02:49;;;;;;;1.63;1.05;;;;;;;0.68;95.16;102989.75;10476880;28;20049;-70
2022/11/12 05:08:09;;;;;;;;;;;;;;;0.73;94.89;103014.28;10487871;28;20731;-70
2022/11/12 05:13:29;;;;;;;2.70;1.45;;;;;;;0.71;95.07;102990.03;10490389;28;19928;-70
2022/11/12 05:18:49;;;;;;;172.77;149.60;;;;;;;0.66;95.24;103001.56;10472858;28;20045;-69
2022/11/12 05:24:09;;;;;;;7.45;5.53;;;;;;;0.65;95.15;103007.53;10463045;28;20048;-70
2022/11/12 05:29:46;;;;;;;4.18;3.10;;;;;;;0.63;94.88;103004.81;10478975;28;20526;-70
2022/11/12 05:35:06;;;;;;;8.27;6.00;;;;;;;0.59;95.01;102986.31;10488023;28;20041;-70
2022/11/12 05:40:26;;;;;;;7.78;6.00;;;;;;;0.54;95.26;102988.44;10478664;28;20052;-71
2022/11/12 05:45:47;;;;;;;9.48;8.27;;;;;;;0.49;95.33;102993.19;10458154;28;20069;-70
2022/11/12 05:51:07;;;;;;;16.45;14.77;;;;;;;0.44;95.28;102996.13;10478346;28;20047;-70
2022/11/12 05:56:35;;;;;;;16.45;13.65;;;;;;;0.38;95.22;102996.44;10481635;28;20048;-70
2022/11/12 06:01:55;;;;;;;0.43;0.40;;;;;;;0.40;95.40;103006.91;10482501;28;20604;-70
2022/11/12 06:07:15;;;;;;;1.33;1.08;;;;;;;0.46;95.10;102992.00;10470919;28;20048;-71
2022/11/12 06:12:35;;;;;;;0.43;0.43;;;;;;;0.39;95.02;102994.75;10478584;28;20056;-70
2022/11/12 06:17:56;;;;;;;0.70;0.45;;;;;;;0.41;95.12;103000.97;10473609;28;20040;-70
2022/11/12 06:23:16;;;;;;;0.52;0.52;;;;;;;0.35;95.27;102991.91;10485982;28;20044;-70
2022/11/12 06:28:36;;;;;;;1.35;1.23;;;;;;;0.34;95.47;103012.38;10467766;28;20067;-70
2022/11/12 06:33:56;;;;;;;0.63;0.45;;;;;;;0.32;95.26;102996.75;10484628;28;20036;-70
2022/11/12 06:39:16;;;;;;;0.47;0.47;;;;;;;0.31;95.16;103012.97;10467795;28;20052;-70
2022/11/12 06:44:36;;;;;;;0.40;0.40;;;;;;;0.32;95.27;103006.19;10468703;28;20053;-70
2022/11/12 06:49:56;;;;;;;0.50;0.50;;;;;;;0.25;95.39;103003.78;10483518;28;20049;-70
2022/11/12 06:55:16;;;;;;;0.43;0.43;;;;;;;0.23;95.36;103023.34;10475586;28;20052;-70
2022/11/12 07:00:37;;;;;;;0.73;0.40;;;;;;;0.28;95.40;103007.53;10467079;28;20506;-70
2022/11/12 07:05:57;;;;;;;0.55;0.40;;;;;;;0.18;95.10;103010.00;10485224;28;20040;-70
2022/11/12 07:11:18;;;;;;;0.63;0.63;;;;;;;0.31;95.09;103032.69;10459270;28;20049;-70
2022/11/12 07:16:39;;;;;;;1.08;0.98;;;;;;;0.36;95.41;103041.75;10480057;28;20117;-71
2022/11/12 07:21:59;;;;;;;0.55;0.52;;;;;;;0.94;95.28;103048.00;10483117;28;20049;-70
2022/11/12 07:27:19;;;;;;;0.43;0.43;;;;;;;1.20;95.54;103030.66;10484949;28;20052;-71
2022/11/12 07:32:39;;;;;;;2.22;1.58;;;;;;;2.15;95.72;103037.31;10451737;28;20111;-70
2022/11/12 07:38:07;;;;;;;1.77;1.25;;;;;;;4.05;95.23;103038.44;10442560;28;20493;-71
2022/11/12 07:43:30;;;;;;;1.08;0.82;;;;;;;6.03;94.21;103039.44;10474662;22;20048;-84
2022/11/12 07:48:51;;;;;;;1.38;1.00;;;;;;;5.12;91.20;103044.03;10452816;28;20053;-84
2022/11/12 07:54:12;;;;;;;0.35;0.35;;;;;;;7.14;88.81;103032.34;10469501;28;20061;-84
2022/11/12 07:59:32;;;;;;;3.50;2.28;;;;;;;6.81;85.19;103046.59;10479395;28;20160;-84
2022/11/12 08:04:52;;;;;;;1.38;1.08;;;;;;;4.67;83.62;103034.53;10501377;28;20044;-84
2022/11/12 08:10:12;;;;;;;1.85;1.25;;;;;;;3.29;83.81;103061.59;10539353;28;20112;-83
2022/11/12 08:15:32;;;;;;;1.03;0.63;;;;;;;2.81;84.66;103055.03;10524004;28;20053;-85
2022/11/12 08:20:58;;;;;;;1.42;1.23;;;;;;;2.55;85.57;103056.28;10513462;28;20505;-85
2022/11/12 08:26:19;;;;;;;1.20;1.10;;;;;;;2.64;86.49;103072.59;10484624;28;20582;-84
2022/11/12 08:31:40;;;;;;;1.40;1.25;;;;;;;2.96;87.96;103061.47;10471821;28;20052;-85
2022/11/12 08:37:00;;;;;;;0.70;0.70;;;;;;;3.61;88.70;103064.25;10501333;28;20060;-84
2022/11/12 08:42:22;;;;;;;1.85;1.25;;;;;;;4.27;89.29;103084.22;10522831;28;20040;-85
2022/11/12 08:47:42;;;;;;;2.00;1.15;;;;;;;4.63;89.76;103074.03;10504099;28;20040;-84
2022/11/12 08:53:07;;;;;;;2.90;1.52;;;;;;;4.93;89.69;103072.91;10511654;28;20067;-84
2022/11/12 08:58:28;;;;;;;2.40;1.30;;;;;;;5.34;89.74;103095.91;10508119;28;20041;-87
2022/11/12 09:03:49;;;;;;;4.03;2.00;;;;;;;5.92;89.76;103082.84;10524731;28;20052;-85
2022/11/12 09:09:09;;;;;;;1.95;1.33;;;;;;;6.10;89.32;103073.78;10512002;28;20037;-85
2022/11/12 09:14:29;;;;;;;6.45;3.00;;;;;;;6.44;88.78;103096.09;10494770;28;20056;-85
2022/11/12 09:19:50;;;;;;;2.53;1.83;;;;;;;7.03;88.51;103090.66;10507597;28;20067;-85
2022/11/12 09:25:10;;;;;;;;;;;;;;;7.13;87.70;103092.19;10485041;28;20044;-85
2022/11/12 09:30:30;;;;;;;3.95;2.25;;;;;;;7.74;87.35;103105.81;10489170;28;20089;-85
2022/11/12 09:35:51;;;;;;;5.80;3.22;;;;;;;8.11;86.39;103097.78;10508895;28;20036;-86
2022/11/12 09:41:50;;;;;;;5.13;2.33;;;;;;;8.37;85.73;103101.13;10527028;28;20605;-86
2022/11/12 09:47:19;;;;;;;3.80;2.03;;;;;;;8.55;85.00;103091.88;10478972;28;20128;-86
2022/11/12 09:52:42;;;;;;;4.60;2.63;;;;;;;8.55;85.00;103091.88;10501646;28;20044;-85
2022/11/12 09:58:09;;;;;;;7.68;2.78;;;;;;;9.41;84.41;103100.50;10496940;28;20033;-85
2022/11/12 10:03:42;;;;;;;5.78;2.15;;;;;;;9.60;83.54;103098.16;10518908;28;20545;-84
2022/11/12 10:09:31;;;;;;;5.45;2.03;;;;;;;9.64;82.52;103088.78;10541969;28;20036;-85
2022/11/12 10:21:18;;;;;;;6.85;3.03;;;;;;;10.04;81.08;103078.84;10351706;28;20066;-85
2022/11/12 10:26:39;;;;;;;9.73;2.38;;;;;;;10.49;80.79;103075.19;10524110;28;20032;-84
2022/11/12 10:32:02;;;;;;;4.60;2.30;;;;;;;10.52;79.82;103077.97;10519703;28;20040;-84
2022/11/12 10:37:35;;;;;;;3.97;1.70;;;;;;;10.94;79.42;103075.81;10529408;28;20024;-84
2022/11/12 10:43:02;;;;;;;9.32;2.33;;;;;;;11.01;78.54;103088.44;10505165;28;20059;-85
2022/11/12 10:48:33;;;;;;;6.95;1.90;;;;;;;11.04;77.77;103079.84;10502220;28;20107;-85
2022/11/12 10:53:55;;;;;;;3.03;1.85;;;;;;;11.05;77.58;103077.28;10501271;28;20425;-85
2022/11/12 10:59:19;;;;;;;9.23;2.53;;;;;;;11.22;77.29;103072.00;10485154;28;20037;-85
2022/11/12 11:04:39;;;;;;;4.45;2.25;;;;;;;11.59;76.98;103063.34;10500966;28;20064;-86
2022/11/12 11:09:59;;;;;;;3.90;2.05;;;;;;;11.91;76.24;103053.53;10477354;28;20028;-84
2022/11/12 11:15:22;;;;;;;4.60;2.30;;;;;;;12.00;75.62;103054.88;10528481;28;20048;-84
2022/11/12 11:20:51;;;;;;;;;;;;;;;12.01;74.90;103058.44;10532735;28;20040;-84
2022/11/12 11:26:17;;;;;;;;;;;;;;;11.76;74.47;103041.44;10531324;28;19923;-84
2022/11/12 11:31:50;;;;;;;5.18;2.38;;;;;;;11.76;74.77;103057.19;10493601;28;20003;-84
2022/11/12 11:37:27;;;;;;;5.78;2.72;;;;;;;11.45;74.86;103050.47;10504342;28;20040;-85
2022/11/12 11:42:53;;;;;;;5.55;2.42;;;;;;;11.18;75.50;103041.19;10499768;28;20056;-84
2022/11/12 11:48:13;;;;;;;11.27;4.35;;;;;;;11.09;76.33;103039.94;10513782;28;20036;-84
2022/11/12 11:53:52;;;;;;;4.18;2.20;;;;;;;11.06;76.07;103028.38;10506063;28;20472;-84
2022/11/12 11:59:26;;;;;;;3.53;2.15;;;;;;;10.96;76.06;103033.13;10542388;28;20032;-83
2022/11/12 12:04:50;;;;;;;3.38;2.08;;;;;;;11.03;76.24;103030.84;10551797;28;20103;-83
2022/11/12 12:10:38;;;;;;;5.75;2.70;;;;;;;11.17;76.30;103021.03;10537999;28;20040;-84
2022/11/12 12:16:57;;;;;;;5.40;1.88;;;;;;;11.19;76.07;103015.06;10540678;28;20064;-86
2022/11/12 12:22:30;;;;;;;5.55;1.98;;;;;;;11.23;76.16;103008.22;10533376;28;20107;-84
2022/11/12 12:28:03;;;;;;;7.30;2.97;;;;;;;11.14;76.02;102998.22;10534776;28;20195;-84
2022/11/12 12:33:45;;;;;;;4.25;2.03;;;;;;;11.11;75.91;102998.94;10551300;28;20036;-84
2022/11/12 12:39:24;;;;;;;4.88;2.17;;;;;;;11.16;76.04;103003.53;10552157;28;20040;-84
2022/11/12 12:45:06;;;;;;;8.82;3.20;;;;;;;11.14;76.10;103001.72;10550487;28;20056;-84
2022/11/12 12:50:27;;;;;;;4.72;2.33;;;;;;;11.17;76.10;102994.81;10533869;28;20036;-86
2022/11/12 12:55:50;;;;;;;5.63;2.28;;;;;;;11.08;75.96;102998.78;10528759;28;20081;-85
2022/11/12 13:01:18;;;;;;;4.03;2.10;;;;;;;11.19;76.21;102998.44;10532673;28;20056;-84
2022/11/12 13:06:51;;;;;;;3.97;2.00;;;;;;;11.18;75.86;102981.78;10553182;28;20036;-84
2022/11/12 13:17:45;;;;;;;4.22;2.22;;;;;;;11.43;75.41;102986.50;10540750;28;20033;-84
2022/11/12 13:23:09;;;;;;;6.20;1.77;;;;;;;11.53;74.47;102989.56;10528700;28;20524;-84
2022/11/12 13:28:29;;;;;;;4.10;1.60;;;;;;;11.53;73.86;102987.88;10533084;28;20052;-84
2022/11/12 13:33:50;;;;;;;;;;;;;;;11.51;73.63;102992.13;10557867;28;20048;-84
2022/11/12 13:39:14;;;;;;;4.03;2.00;;;;;;;11.49;73.36;102988.53;10556904;28;19920;-83
2022/11/12 13:44:34;;;;;;;4.57;2.17;;;;;;;11.42;73.55;102976.84;10544046;28;20302;-85
2022/11/12 13:50:00;;;;;;;4.13;2.05;;;;;;;11.38;74.18;102979.22;10517842;28;20040;-84
2022/11/12 13:55:21;;;;;;;5.78;2.10;;;;;;;11.42;74.01;102989.94;10553320;28;20071;-84
2022/11/12 14:00:51;;;;;;;3.15;1.73;;;;;;;11.37;74.01;102988.84;10562404;28;20036;-84
2022/11/12 14:06:25;;;;;;;4.70;1.92;;;;;;;11.32;73.87;102995.59;10563665;28;20044;-83
2022/11/12 14:12:07;;;;;;;6.05;2.17;;;;;;;11.21;74.22;102987.16;10567104;28;20032;-84
2022/11/12 14:17:40;;;;;;;3.15;1.70;;;;;;;11.14;74.33;102987.72;10517457;28;20032;-84
2022/11/12 14:23:18;;;;;;;4.30;2.10;;;;;;;10.99;74.59;102968.56;10536663;28;20040;-84
2022/11/12 14:28:44;;;;;;;4.22;2.05;;;;;;;10.81;74.92;102968.53;10564960;28;20040;-84
2022/11/12 14:34:21;;;;;;;5.25;2.22;;;;;;;10.77;74.86;102972.75;10546129;28;20445;-85
2022/11/12 14:39:42;;;;;;;3.97;2.10;;;;;;;10.59;75.27;102967.44;10518722;28;20118;-84
2022/11/12 14:45:02;;;;;;;4.53;2.05;;;;;;;10.44;75.54;102963.19;10531145;28;20055;-83
2022/11/12 14:50:25;;;;;;;;;;;;;;;10.25;75.84;102952.53;10532478;28;20467;-84
2022/11/12 14:55:49;;;;;;;5.15;2.47;;;;;;;10.15;76.26;102947.63;10530709;28;19920;-85
2022/11/12 15:01:29;;;;;;;3.50;1.83;;;;;;;10.00;76.69;102950.34;10530350;28;20048;-85
2022/11/12 15:07:50;;;;;;;3.45;1.60;;;;;;;9.82;77.17;102945.03;10526024;28;20045;-85
2022/11/12 15:13:22;;;;;;;5.47;2.17;;;;;;;9.57;77.45;102945.38;10468124;28;20048;-86
2022/11/12 15:18:42;;;;;;;3.88;1.67;;;;;;;9.44;78.00;102936.81;10490596;28;20033;-86
2022/11/12 15:24:28;;;;;;;4.22;1.80;;;;;;;9.32;78.57;102930.91;10529463;28;20056;-84
2022/11/12 15:29:48;;;;;;;6.57;2.63;;;;;;;9.18;79.10;102935.34;10538177;28;20032;-83
2022/11/12 15:35:23;;;;;;;5.68;2.10;;;;;;;9.01;79.33;102932.69;10493363;28;20501;-84
2022/11/12 15:40:45;;;;;;;6.70;2.85;;;;;;;9.01;79.33;102932.69;10517791;28;20036;-84
2022/11/12 15:46:14;;;;;;;5.25;2.28;;;;;;;8.76;79.87;102946.00;10546171;28;20036;-85
2022/11/12 15:51:34;;;;;;;5.20;2.28;;;;;;;8.48;80.11;102949.59;10521638;28;20052;-84
2022/11/12 15:56:54;;;;;;;4.60;2.42;;;;;;;8.24;80.59;102946.38;10555828;28;20690;-85
2022/11/12 16:02:14;;;;;;;3.78;2.10;;;;;;;8.14;81.17;102947.50;10525813;28;20049;-84
2022/11/12 16:07:35;;;;;;;3.58;2.00;;;;;;;8.13;81.75;102939.59;10540062;28;20040;-85
2022/11/12 16:12:58;;;;;;;3.28;1.80;;;;;;;7.93;81.83;102943.56;10503467;28;20040;-84
2022/11/12 16:18:18;;;;;;;4.38;2.08;;;;;;;7.89;82.54;102939.84;10504015;28;20037;-84
2022/11/12 16:23:38;;;;;;;3.42;1.70;;;;;;;7.68;82.85;102930.69;10506933;28;20036;-84
2022/11/12 16:28:59;;;;;;;12.63;4.05;;;;;;;7.43;83.18;102931.72;10506318;28;20100;-84
2022/11/12 16:34:19;;;;;;;5.70;2.95;;;;;;;7.37;83.71;102931.34;10530556;28;20313;-85
2022/11/12 16:39:39;;;;;;;8.38;2.92;;;;;;;7.16;84.09;102923.94;10542083;28;20060;-84
2022/11/12 16:45:00;;;;;;;5.82;2.83;;;;;;;6.98;84.50;102930.53;10508296;28;20053;-84
2022/11/12 16:50:27;;;;;;;8.20;4.20;;;;;;;6.77;84.83;102935.22;10512194;28;20123;-84
2022/11/12 16:55:47;;;;;;;4.60;3.08;;;;;;;6.54;85.24;102938.09;10500539;28;20699;-83
2022/11/12 17:01:13;;;;;;;4.78;2.78;;;;;;;6.32;85.34;102932.19;10516240;28;20045;-84
2022/11/12 17:06:38;;;;;;;5.90;2.45;;;;;;;6.13;85.82;102928.34;10505939;28;20044;-83
2022/11/12 17:11:59;;;;;;;5.85;2.90;;;;;;;5.97;85.94;102925.44;10509344;28;20044;-84
2022/11/12 17:17:19;;;;;;;4.32;2.00;;;;;;;5.88;85.99;102929.97;10498087;28;20505;-87
2022/11/12 17:22:39;;;;;;;4.85;2.58;;;;;;;5.74;86.37;102916.91;10472028;28;20052;-86
2022/11/12 17:27:59;;;;;;;5.60;2.80;;;;;;;5.59;86.62;102908.03;10512179;28;20036;-86
2022/11/12 17:33:19;;;;;;;6.40;3.50;;;;;;;5.46;86.95;102901.97;10521107;28;20122;-85
2022/11/12 17:38:40;;;;;;;6.68;3.63;;;;;;;5.33;87.29;102894.06;10542784;28;20846;-84
2022/11/12 17:44:06;;;;;;;9.50;3.53;;;;;;;5.24;87.50;102890.78;10561131;28;20040;-85
2022/11/12 17:49:29;;;;;;;5.82;3.28;;;;;;;5.24;87.75;102902.09;10527056;28;20036;-84
2022/11/12 17:54:53;;;;;;;;;;;;;;;5.14;88.04;102903.09;10524559;28;20040;-82
2022/11/12 18:00:27;;;;;;;6.20;3.47;;;;;;;5.00;88.33;102893.41;10536659;28;19927;-84
2022/11/12 18:06:02;;;;;;;7.20;4.07;;;;;;;4.86;88.51;102888.88;10528348;28;20025;-85
2022/11/12 18:11:28;;;;;;;5.63;2.95;;;;;;;4.73;88.62;102879.31;10526897;28;20056;-83
2022/11/12 18:16:50;;;;;;;3.90;2.30;;;;;;;4.63;88.78;102893.28;10527211;28;20036;-85
2022/11/12 18:22:12;;;;;;;7.72;3.33;;;;;;;4.52;89.16;102884.69;10537873;28;20044;-86
2022/11/12 18:27:32;;;;;;;6.75;2.72;;;;;;;4.48;89.49;102876.56;10550316;28;20041;-86
2022/11/12 18:32:52;;;;;;;5.47;2.42;;;;;;;4.39;89.50;102877.66;10508745;28;20103;-87
2022/11/12 18:38:12;;;;;;;3.85;2.00;;;;;;;4.42;100.00;102688.69;10507562;28;20040;-85
2022/11/12 18:43:36;;;;;;;0.82;0.75;;;;;;;4.52;90.11;102866.53;10535372;28;20040;-86
2022/11/12 18:48:56;;;;;;;2.47;1.98;;;;;;;4.55;90.56;102863.25;10546294;28;20040;-86
2022/11/12 18:54:23;;;;;;;2.47;1.10;;;;;;;4.51;90.80;102869.00;10562218;28;20044;-86
2022/11/12 18:59:44;;;;;;;3.47;1.63;;;;;;;4.47;91.23;102865.25;10551662;28;20040;-85
2022/11/12 19:05:04;;;;;;;3.92;2.35;;;;;;;4.41;91.50;102855.34;10523521;28;20040;-85
2022/11/12 19:10:24;;;;;;;2.80;2.08;;;;;;;4.28;91.33;102856.88;10572687;28;20040;-85
2022/11/12 19:15:44;;;;;;;3.95;2.35;;;;;;;4.17;91.47;102858.66;10518386;28;20037;-85
2022/11/12 19:21:11;;;;;;;4.60;2.63;;;;;;;4.12;91.63;102865.19;10526635;28;20044;-86
2022/11/12 19:26:38;;;;;;;4.25;2.08;;;;;;;4.04;91.73;102862.03;10530439;28;20044;-86
2022/11/12 19:32:03;;;;;;;3.70;2.08;;;;;;;3.98;91.91;102843.38;10511554;28;20036;-80
2022/11/12 19:37:23;;;;;;;2.88;1.83;;;;;;;3.88;91.86;102850.44;10549136;28;20036;-81
2022/11/12 19:42:53;;;;;;;2.85;1.65;;;;;;;3.82;91.87;102846.50;10560857;28;20040;-81
2022/11/12 19:48:13;;;;;;;4.53;2.55;;;;;;;3.71;91.63;102838.78;10543984;28;20036;-80
2022/11/12 19:53:35;;;;;;;5.63;3.15;;;;;;;3.62;91.92;102832.88;10519277;28;20436;-81
2022/11/12 19:58:55;;;;;;;5.28;2.75;;;;;;;3.61;91.82;102832.75;10538611;28;20043;-80
2022/11/12 20:04:15;;;;;;;4.30;2.75;;;;;;;3.58;91.80;102846.38;10504882;28;20135;-81
2022/11/12 20:09:43;;;;;;;5.15;3.67;;;;;;;3.58;91.99;102828.25;10511647;28;20045;-82
2022/11/12 20:15:04;;;;;;;7.55;4.57;;;;;;;3.52;91.81;102841.59;10515353;28;20037;-81
2022/11/12 20:20:24;;;;;;;;;;;;;;;3.49;92.23;102843.06;10516204;28;20052;-81
2022/11/12 20:25:44;;;;;;;6.13;3.58;;;;;;;3.46;91.75;102848.91;10514390;28;19924;-80
2022/11/12 20:31:11;;;;;;;9.93;6.60;;;;;;;3.40;92.19;102842.34;10515016;28;20040;-81
2022/11/12 20:36:31;;;;;;;12.13;4.97;;;;;;;3.34;92.06;102850.53;10516816;28;20044;-81
2022/11/12 20:41:51;;;;;;;4.15;3.05;;;;;;;3.28;92.58;102847.44;10514332;28;20052;-81
2022/11/12 20:47:11;;;;;;;4.07;2.70;;;;;;;3.25;92.29;102853.28;10513580;28;20037;-81
2022/11/12 20:52:32;;;;;;;3.33;2.00;;;;;;;3.15;92.24;102835.19;10511873;28;20040;-81
2022/11/12 20:57:52;;;;;;;4.30;2.92;;;;;;;3.10;92.45;102833.94;10513897;28;20040;-81
2022/11/12 21:03:13;;;;;;;6.18;3.40;;;;;;;3.05;92.65;102841.34;10514762;28;20059;-82
2022/11/12 21:08:34;;;;;;;10.27;4.13;;;;;;;2.99;92.70;102836.56;10510941;28;20093;-82
2022/11/12 21:13:54;;;;;;;;;;;;;;;2.90;92.62;102828.06;10513461;28;20040;-81
2022/11/12 21:19:14;;;;;;;7.40;2.22;;;;;;;2.83;92.70;102826.63;10510273;28;19984;-81
2022/11/12 21:24:34;;;;;;;6.00;3.70;;;;;;;2.79;92.84;102818.50;10503750;28;20070;-81
2022/11/12 21:29:55;;;;;;;4.20;2.65;;;;;;;2.79;92.97;102815.91;10506691;28;20104;-81
2022/11/12 21:35:15;;;;;;;12.85;3.85;;;;;;;2.74;93.17;102822.41;10511655;28;20334;-82
2022/11/12 21:40:35;;;;;;;5.97;3.30;;;;;;;2.68;92.98;102821.91;10511969;28;20068;-81
2022/11/12 21:45:55;;;;;;;6.35;4.30;;;;;;;2.62;92.76;102819.72;10514006;28;20459;-81
2022/11/12 21:51:16;;;;;;;14.13;8.40;;;;;;;2.56;93.00;102809.78;10512954;28;20048;-81
2022/11/12 21:56:38;;;;;;;7.82;4.50;;;;;;;2.55;93.07;102802.81;10506575;28;20513;-81
2022/11/12 22:01:58;;;;;;;5.68;3.50;;;;;;;2.51;92.83;102812.75;10502810;28;20307;-82
2022/11/12 22:07:18;;;;;;;8.53;5.90;;;;;;;2.48;92.87;102801.41;10496131;28;20127;-82
2022/11/12 22:12:38;;;;;;;7.35;6.10;;;;;;;2.52;93.06;102806.81;10514926;28;20071;-80
2022/11/12 22:18:04;;;;;;;7.75;3.10;;;;;;;2.52;93.07;102793.88;10508461;28;20033;-81
2022/11/12 22:23:24;;;;;;;8.23;4.75;;;;;;;2.55;93.11;102787.31;10523305;28;20040;-81
2022/11/12 22:28:45;;;;;;;6.43;3.35;;;;;;;2.58;93.45;102796.97;10523769;28;20040;-82
2022/11/12 22:34:08;;;;;;;5.55;3.55;;;;;;;2.59;93.45;102785.84;10523314;28;20497;-83
2022/11/12 22:39:28;;;;;;;6.35;3.75;;;;;;;2.59;93.31;102789.34;10522747;28;20033;-82
2022/11/12 22:44:48;;;;;;;6.00;3.92;;;;;;;2.58;93.75;102784.97;10515681;28;20044;-82
2022/11/12 22:50:08;;;;;;;7.97;4.28;;;;;;;2.58;93.64;102772.03;10521356;28;20056;-82
2022/11/12 22:55:29;;;;;;;4.13;2.70;;;;;;;2.54;93.43;102784.56;10522502;28;20044;-82
2022/11/12 23:00:49;;;;;;;29.35;1.70;;;;;;;2.52;93.58;102771.50;10522308;28;20108;-83
2022/11/12 23:06:10;;;;;;;1.30;1.13;;;;;;;2.52;93.64;102775.78;10521208;28;20040;-82
2022/11/12 23:11:30;;;;;;;;;;;;;;;2.53;93.42;102777.59;10513048;28;20032;-82
2022/11/12 23:16:50;;;;;;;4.25;2.17;;;;;;;2.53;93.57;102788.84;10493648;28;20011;-83
2022/11/12 23:22:10;;;;;;;3.77;2.90;;;;;;;2.55;93.46;102792.47;10508238;28;20052;-82
2022/11/12 23:27:30;;;;;;;2.78;2.08;;;;;;;2.58;93.74;102772.03;10517320;28;20041;-82
2022/11/12 23:32:51;;;;;;;2.30;1.48;;;;;;;2.64;93.69;102771.59;10516856;28;20044;-82
2022/11/12 23:38:11;;;;;;;3.45;1.67;;;;;;;2.69;93.54;102771.97;10514168;28;20036;-82
2022/11/12 23:43:31;;;;;;;1.77;1.35;;;;;;;2.66;93.78;102770.06;10505124;28;20581;-82
2022/11/12 23:48:51;;;;;;;2.72;1.98;;;;;;;2.67;93.60;102770.94;10507870;28;20037;-82
2022/11/12 23:54:11;;;;;;;3.40;2.30;;;;;;;2.69;93.63;102779.72;10514934;28;20037;-82
2022/11/12 23:59:31;;;;;;;5.05;2.28;;;;;;;2.73;94.01;102762.03;10512365;28;20041;-82
